createdAt,value
2019-05-19T00:00:31.876Z,11.37
2019-05-19T00:05:38.669Z,11.29
2019-05-19T00:10:45.376Z,11.24
2019-05-19T00:15:51.908Z,11.15
2019-05-19T00:20:58.525Z,11.13
2019-05-19T00:26:05.217Z,11.10
2019-05-19T00:31:11.762Z,11.12
2019-05-19T00:36:19.713Z,11.09
2019-05-19T00:41:26.432Z,11.07
2019-05-19T00:46:33.119Z,11.13
2019-05-19T00:51:40.282Z,11.12
2019-05-19T00:56:47.000Z,11.06
2019-05-19T01:01:53.627Z,10.94
2019-05-19T01:07:00.230Z,10.84
2019-05-19T01:12:06.847Z,10.70
2019-05-19T01:17:13.317Z,10.65
2019-05-19T01:22:19.843Z,10.65
2019-05-19T01:27:26.411Z,10.58
2019-05-19T01:32:33.127Z,10.51
2019-05-19T01:37:39.788Z,10.51
2019-05-19T01:42:46.421Z,10.31
2019-05-19T01:47:53.091Z,10.00
2019-05-19T01:52:59.724Z,9.93
2019-05-19T01:58:06.325Z,9.82
2019-05-19T02:03:13.037Z,9.85
2019-05-19T02:08:19.608Z,10.06
2019-05-19T02:13:26.142Z,10.13
2019-05-19T02:18:32.769Z,10.19
2019-05-19T02:23:39.395Z,10.19
2019-05-19T02:28:46.097Z,10.24
2019-05-19T02:33:52.588Z,10.34
2019-05-19T02:38:59.207Z,10.33
2019-05-19T02:44:07.357Z,10.28
2019-05-19T02:49:15.957Z,10.19
2019-05-19T02:54:23.882Z,9.96
2019-05-19T02:59:33.142Z,9.82
2019-05-19T03:04:39.760Z,9.67
2019-05-19T03:09:46.392Z,9.56
2019-05-19T03:14:52.940Z,9.40
2019-05-19T03:19:59.307Z,9.39
2019-05-19T03:25:06.191Z,9.38
2019-05-19T03:30:32.182Z,9.29
2019-05-19T03:35:38.826Z,9.24
2019-05-19T03:40:45.627Z,9.29
2019-05-19T03:45:52.182Z,9.22
2019-05-19T03:50:58.545Z,9.29
2019-05-19T03:56:05.068Z,9.24
2019-05-19T04:01:11.601Z,9.31
2019-05-19T04:06:18.044Z,9.40
2019-05-19T04:11:24.612Z,9.44
2019-05-19T04:16:31.204Z,9.54
2019-05-19T04:21:48.036Z,9.66
2019-05-19T04:26:45.984Z,9.86
2019-05-19T04:31:52.516Z,10.10
2019-05-19T04:36:58.986Z,10.58
2019-05-19T04:42:05.592Z,11.16
2019-05-19T04:47:12.162Z,13.05
2019-05-19T04:52:18.766Z,15.15
2019-05-19T04:57:25.339Z,15.59
2019-05-19T05:02:31.982Z,13.75
2019-05-19T05:07:38.520Z,13.43
2019-05-19T05:12:45.064Z,13.39
2019-05-19T05:17:51.700Z,13.54
2019-05-19T05:22:58.165Z,13.94
2019-05-19T05:28:04.745Z,14.36
2019-05-19T05:33:11.341Z,14.56
2019-05-19T05:38:18.375Z,14.95
2019-05-19T05:43:25.028Z,15.00
2019-05-19T05:48:31.778Z,14.86
2019-05-19T05:53:38.411Z,14.93
2019-05-19T05:58:45.123Z,15.38
2019-05-19T06:03:51.700Z,15.65
2019-05-19T06:08:58.248Z,15.86
2019-05-19T06:14:05.531Z,15.80
2019-05-19T06:19:12.099Z,15.88
2019-05-19T06:24:19.583Z,16.10
2019-05-19T06:29:26.182Z,16.68
2019-05-19T06:34:32.795Z,16.92
2019-05-19T06:39:39.199Z,16.98
2019-05-19T06:44:45.875Z,17.01
2019-05-19T06:49:52.465Z,17.53
2019-05-19T06:54:58.952Z,17.70
2019-05-19T07:00:06.511Z,18.03
2019-05-19T07:05:13.463Z,18.21
2019-05-19T07:10:20.173Z,18.40
2019-05-19T07:15:27.327Z,18.33
2019-05-19T07:20:35.634Z,18.75
2019-05-19T07:25:42.235Z,18.72
2019-05-19T07:30:49.862Z,18.68
2019-05-19T07:35:56.538Z,18.61
2019-05-19T07:41:03.135Z,18.54
2019-05-19T07:46:09.647Z,19.05
2019-05-19T07:51:16.158Z,19.20
2019-05-19T07:56:22.724Z,19.46
2019-05-19T08:01:29.309Z,19.96
2019-05-19T08:06:35.965Z,19.98
2019-05-19T08:11:42.567Z,19.57
2019-05-19T08:16:49.125Z,19.87
2019-05-19T08:21:55.917Z,20.62
2019-05-19T08:27:02.652Z,21.25
2019-05-19T08:32:09.303Z,21.59
2019-05-19T08:37:15.898Z,21.82
2019-05-19T08:42:22.470Z,22.32
2019-05-19T08:47:29.358Z,22.58
2019-05-19T08:52:36.978Z,22.93
2019-05-19T08:57:43.715Z,23.16
2019-05-19T09:02:50.372Z,23.40
2019-05-19T09:07:57.086Z,23.17
2019-05-19T09:13:03.765Z,23.30
2019-05-19T09:18:10.383Z,23.21
2019-05-19T09:23:17.277Z,23.53
2019-05-19T09:28:23.782Z,22.99
2019-05-19T09:33:30.417Z,23.43
2019-05-19T09:38:37.071Z,24.18
2019-05-19T09:43:43.751Z,23.82
2019-05-19T09:49:09.135Z,23.76
2019-05-19T09:54:25.495Z,24.76
2019-05-19T09:59:32.160Z,24.39
2019-05-19T10:04:38.712Z,24.25
2019-05-19T10:10:05.543Z,24.70
2019-05-19T10:15:14.525Z,24.94
2019-05-19T10:20:21.724Z,25.13
2019-05-19T10:25:28.519Z,25.54
2019-05-19T10:30:35.143Z,26.07
2019-05-19T10:35:41.714Z,26.12
2019-05-19T10:40:48.605Z,26.17
2019-05-19T10:46:01.017Z,26.23
2019-05-19T10:51:07.600Z,26.39
2019-05-19T10:56:14.391Z,26.24
2019-05-19T11:01:20.961Z,25.64
2019-05-19T11:06:27.815Z,26.07
2019-05-19T11:11:34.521Z,25.65
2019-05-19T11:16:41.311Z,26.02
2019-05-19T11:21:47.952Z,26.55
2019-05-19T11:26:54.667Z,26.61
2019-05-19T11:32:01.436Z,26.80
2019-05-19T11:37:08.273Z,26.32
2019-05-19T11:42:15.082Z,25.04
2019-05-19T11:47:23.222Z,25.46
2019-05-19T11:52:29.780Z,25.14
2019-05-19T11:57:36.328Z,25.88
2019-05-19T12:02:42.737Z,26.88
2019-05-19T12:07:49.268Z,26.30
2019-05-19T12:12:55.908Z,26.23
2019-05-19T12:18:02.465Z,26.38
2019-05-19T12:23:09.311Z,26.29
2019-05-19T12:28:15.726Z,26.11
2019-05-19T12:33:22.214Z,25.35
2019-05-19T12:38:29.017Z,25.46
2019-05-19T12:43:35.499Z,25.69
2019-05-19T12:48:41.994Z,26.08
2019-05-19T12:53:48.552Z,26.26
2019-05-19T12:58:55.112Z,26.30
2019-05-19T13:04:01.687Z,26.33
2019-05-19T13:09:09.865Z,26.24
2019-05-19T13:14:16.444Z,25.93
2019-05-19T13:19:23.110Z,25.35
2019-05-19T13:24:29.773Z,25.16
2019-05-19T13:29:36.316Z,24.85
2019-05-19T13:34:42.880Z,25.06
2019-05-19T13:39:49.456Z,24.66
2019-05-19T13:44:56.071Z,24.60
2019-05-19T13:50:02.706Z,24.42
2019-05-19T13:55:09.683Z,24.74
2019-05-19T14:00:16.424Z,24.56
2019-05-19T14:05:23.054Z,24.73
2019-05-19T14:10:29.627Z,25.18
2019-05-19T14:15:36.260Z,24.92
2019-05-19T14:20:42.912Z,24.72
2019-05-19T14:25:49.463Z,24.94
2019-05-19T14:30:55.948Z,24.71
2019-05-19T14:36:02.553Z,25.15
2019-05-19T14:41:09.234Z,25.20
2019-05-19T14:46:15.760Z,24.73
2019-05-19T14:51:22.456Z,24.97
2019-05-19T14:56:29.045Z,25.45
2019-05-19T15:01:35.611Z,25.92
2019-05-19T15:06:42.180Z,26.07
2019-05-19T15:11:48.675Z,26.27
2019-05-19T15:16:55.516Z,26.44
2019-05-19T15:22:02.006Z,26.54
2019-05-19T15:27:08.485Z,26.15
2019-05-19T15:32:15.049Z,26.26
2019-05-19T15:37:21.713Z,25.39
2019-05-19T15:42:28.365Z,25.79
2019-05-19T15:47:35.086Z,25.91
2019-05-19T15:52:42.786Z,26.07
2019-05-19T15:57:49.346Z,26.19
2019-05-19T16:02:55.832Z,25.83
2019-05-19T16:08:02.456Z,25.53
2019-05-19T16:13:09.119Z,25.79
2019-05-19T16:18:15.582Z,25.64
2019-05-19T16:23:22.273Z,25.17
2019-05-19T16:28:31.055Z,25.61
2019-05-19T16:33:37.220Z,26.29
2019-05-19T16:38:44.593Z,26.52
2019-05-19T16:43:51.754Z,26.27
2019-05-19T16:48:59.052Z,25.87
2019-05-19T16:54:11.710Z,25.77
2019-05-19T16:59:19.253Z,25.84
2019-05-19T17:04:27.219Z,26.11
2019-05-19T17:09:33.795Z,26.31
2019-05-19T17:14:40.270Z,26.81
2019-05-19T17:19:47.830Z,25.69
2019-05-19T17:24:54.531Z,25.19
2019-05-19T17:30:02.616Z,24.50
2019-05-19T17:35:09.939Z,24.28
2019-05-19T17:40:17.210Z,23.85
2019-05-19T17:45:24.143Z,23.49
2019-05-19T17:50:35.244Z,23.04
2019-05-19T17:55:45.885Z,22.54
2019-05-19T18:00:52.679Z,21.96
2019-05-19T18:05:59.393Z,21.51
2019-05-19T18:11:06.054Z,21.05
2019-05-19T18:16:12.618Z,20.62
2019-05-19T18:21:19.286Z,20.20
2019-05-19T18:26:25.800Z,19.85
2019-05-19T18:31:32.370Z,19.52
2019-05-19T18:36:39.006Z,19.13
2019-05-19T18:41:46.713Z,18.70
2019-05-19T18:46:53.293Z,18.53
2019-05-19T18:51:59.937Z,18.23
2019-05-19T18:57:06.654Z,18.03
2019-05-19T19:02:13.405Z,17.77
2019-05-19T19:07:21.631Z,17.46
2019-05-19T19:12:28.138Z,17.10
2019-05-19T19:17:34.551Z,16.75
2019-05-19T19:22:41.286Z,16.52
2019-05-19T19:27:47.908Z,16.34
2019-05-19T19:32:54.459Z,16.18
2019-05-19T19:38:02.190Z,15.99
2019-05-19T19:43:08.910Z,15.82
2019-05-19T19:48:15.444Z,15.64
2019-05-19T19:53:21.924Z,15.46
2019-05-19T19:58:32.122Z,15.31
2019-05-19T20:03:40.310Z,15.10
2019-05-19T20:08:46.892Z,14.88
2019-05-19T20:13:53.545Z,14.78
2019-05-19T20:18:59.950Z,14.64
2019-05-19T20:24:06.497Z,14.57
2019-05-19T20:29:13.061Z,14.48
2019-05-19T20:34:19.701Z,14.36
2019-05-19T20:39:26.221Z,14.25
2019-05-19T20:44:32.879Z,14.13
2019-05-19T20:49:39.306Z,13.71
2019-05-19T20:54:45.813Z,13.49
2019-05-19T20:59:52.536Z,13.40
2019-05-19T21:04:58.957Z,13.43
2019-05-19T21:10:06.236Z,13.38
2019-05-19T21:15:13.358Z,13.33
2019-05-19T21:20:20.012Z,13.24
2019-05-19T21:25:26.814Z,13.17
2019-05-19T21:30:33.405Z,13.12
2019-05-19T21:35:40.027Z,13.04
2019-05-19T21:40:46.483Z,12.99
2019-05-19T21:45:52.967Z,12.81
2019-05-19T21:50:59.459Z,12.64
2019-05-19T21:56:06.094Z,12.53
2019-05-19T22:01:22.883Z,12.42
2019-05-19T22:06:22.704Z,12.47
2019-05-19T22:11:29.272Z,12.51
2019-05-19T22:16:35.979Z,12.47
2019-05-19T22:21:42.536Z,12.41
2019-05-19T22:26:49.022Z,12.36
2019-05-19T22:31:55.602Z,12.37
2019-05-19T22:37:02.026Z,12.34
2019-05-19T22:42:08.591Z,12.30
2019-05-19T22:47:15.439Z,12.13
2019-05-19T22:52:21.973Z,12.08
2019-05-19T22:57:28.560Z,12.04
2019-05-19T23:02:35.208Z,12.02
2019-05-19T23:07:41.858Z,11.94
2019-05-19T23:12:48.509Z,11.92
2019-05-19T23:17:55.324Z,11.89
2019-05-19T23:23:01.806Z,11.85
2019-05-19T23:28:08.254Z,11.78
2019-05-19T23:33:14.883Z,11.80
2019-05-19T23:38:21.429Z,11.83
2019-05-19T23:43:28.026Z,11.87
2019-05-19T23:48:34.602Z,11.92
2019-05-19T23:53:41.148Z,11.96
2019-05-19T23:58:47.789Z,12.12
